sensor_id;sensor_type;location;lat;lon;timestamp;P1;durP1;ratioP1;P2;durP2;ratioP2
69799;SDS011;67217;51.008;4.644;2023-02-28T00:01:27;14.13;;;7.92;;
69799;SDS011;67217;51.008;4.644;2023-02-28T00:03:55;16.50;;;8.35;;
69799;SDS011;67217;51.008;4.644;2023-02-28T00:06:23;17.65;;;8.20;;
69799;SDS011;67217;51.008;4.644;2023-02-28T00:08:51;12.53;;;7.92;;
69799;SDS011;67217;51.008;4.644;2023-02-28T00:11:19;15.00;;;8.58;;
69799;SDS011;67217;51.008;4.644;2023-02-28T00:13:47;14.78;;;8.48;;
69799;SDS011;67217;51.008;4.644;2023-02-28T00:16:17;16.27;;;8.98;;
69799;SDS011;67217;51.008;4.644;2023-02-28T00:18:46;16.62;;;8.05;;
69799;SDS011;67217;51.008;4.644;2023-02-28T00:21:15;16.32;;;8.83;;
69799;SDS011;67217;51.008;4.644;2023-02-28T00:23:44;13.98;;;8.35;;
69799;SDS011;67217;51.008;4.644;2023-02-28T00:26:11;14.90;;;8.25;;
69799;SDS011;67217;51.008;4.644;2023-02-28T00:28:40;13.08;;;8.58;;
69799;SDS011;67217;51.008;4.644;2023-02-28T00:31:08;14.73;;;9.75;;
69799;SDS011;67217;51.008;4.644;2023-02-28T00:33:36;14.63;;;9.23;;
69799;SDS011;67217;51.008;4.644;2023-02-28T00:36:04;15.20;;;8.83;;
69799;SDS011;67217;51.008;4.644;2023-02-28T00:38:34;16.55;;;8.93;;
69799;SDS011;67217;51.008;4.644;2023-02-28T00:41:02;14.45;;;9.08;;
69799;SDS011;67217;51.008;4.644;2023-02-28T00:43:31;15.75;;;8.88;;
69799;SDS011;67217;51.008;4.644;2023-02-28T00:46:04;14.43;;;9.30;;
69799;SDS011;67217;51.008;4.644;2023-02-28T00:48:32;13.48;;;8.78;;
69799;SDS011;67217;51.008;4.644;2023-02-28T00:51:00;14.75;;;9.28;;
69799;SDS011;67217;51.008;4.644;2023-02-28T00:53:28;14.58;;;9.08;;
69799;SDS011;67217;51.008;4.644;2023-02-28T00:55:58;15.28;;;9.65;;
69799;SDS011;67217;51.008;4.644;2023-02-28T00:58:26;14.87;;;9.90;;
69799;SDS011;67217;51.008;4.644;2023-02-28T01:00:54;19.77;;;9.83;;
69799;SDS011;67217;51.008;4.644;2023-02-28T01:03:23;12.95;;;9.18;;
69799;SDS011;67217;51.008;4.644;2023-02-28T01:05:51;20.80;;;10.15;;
69799;SDS011;67217;51.008;4.644;2023-02-28T01:08:22;17.05;;;9.90;;
69799;SDS011;67217;51.008;4.644;2023-02-28T01:10:52;16.37;;;9.83;;
69799;SDS011;67217;51.008;4.644;2023-02-28T01:13:20;16.02;;;10.78;;
69799;SDS011;67217;51.008;4.644;2023-02-28T01:15:49;16.87;;;10.53;;
69799;SDS011;67217;51.008;4.644;2023-02-28T01:18:19;16.17;;;10.25;;
69799;SDS011;67217;51.008;4.644;2023-02-28T01:20:48;18.05;;;10.30;;
69799;SDS011;67217;51.008;4.644;2023-02-28T01:23:18;14.83;;;10.30;;
69799;SDS011;67217;51.008;4.644;2023-02-28T01:25:47;18.02;;;10.75;;
69799;SDS011;67217;51.008;4.644;2023-02-28T01:28:15;17.02;;;10.55;;
69799;SDS011;67217;51.008;4.644;2023-02-28T01:30:46;15.72;;;10.32;;
69799;SDS011;67217;51.008;4.644;2023-02-28T01:33:16;19.20;;;10.90;;
69799;SDS011;67217;51.008;4.644;2023-02-28T01:35:44;16.52;;;11.18;;
69799;SDS011;67217;51.008;4.644;2023-02-28T01:38:12;17.62;;;10.78;;
69799;SDS011;67217;51.008;4.644;2023-02-28T01:40:40;15.10;;;10.48;;
69799;SDS011;67217;51.008;4.644;2023-02-28T01:43:12;14.43;;;10.35;;
69799;SDS011;67217;51.008;4.644;2023-02-28T01:45:41;18.10;;;11.33;;
69799;SDS011;67217;51.008;4.644;2023-02-28T01:48:09;18.07;;;10.95;;
69799;SDS011;67217;51.008;4.644;2023-02-28T01:50:40;20.15;;;12.05;;
69799;SDS011;67217;51.008;4.644;2023-02-28T01:53:30;19.82;;;11.25;;
69799;SDS011;67217;51.008;4.644;2023-02-28T01:55:57;16.90;;;11.55;;
69799;SDS011;67217;51.008;4.644;2023-02-28T01:58:26;17.80;;;11.45;;
69799;SDS011;67217;51.008;4.644;2023-02-28T02:00:54;16.35;;;11.15;;
69799;SDS011;67217;51.008;4.644;2023-02-28T02:03:23;16.00;;;9.00;;
69799;SDS011;67217;51.008;4.644;2023-02-28T02:05:51;16.00;;;11.30;;
69799;SDS011;67217;51.008;4.644;2023-02-28T02:08:23;21.20;;;12.10;;
69799;SDS011;67217;51.008;4.644;2023-02-28T02:10:51;18.17;;;11.60;;
69799;SDS011;67217;51.008;4.644;2023-02-28T02:13:41;21.40;;;12.00;;
69799;SDS011;67217;51.008;4.644;2023-02-28T02:19:06;21.68;;;12.40;;
69799;SDS011;67217;51.008;4.644;2023-02-28T02:21:40;18.27;;;12.40;;
69799;SDS011;67217;51.008;4.644;2023-02-28T02:27:03;19.42;;;12.07;;
69799;SDS011;67217;51.008;4.644;2023-02-28T02:35:18;18.92;;;12.47;;
69799;SDS011;67217;51.008;4.644;2023-02-28T02:37:55;19.67;;;12.55;;
69799;SDS011;67217;51.008;4.644;2023-02-28T02:40:22;19.75;;;13.35;;
69799;SDS011;67217;51.008;4.644;2023-02-28T02:43:01;17.02;;;12.95;;
69799;SDS011;67217;51.008;4.644;2023-02-28T02:45:59;19.45;;;13.20;;
69799;SDS011;67217;51.008;4.644;2023-02-28T02:48:29;21.62;;;12.75;;
69799;SDS011;67217;51.008;4.644;2023-02-28T02:50:58;21.70;;;13.48;;
69799;SDS011;67217;51.008;4.644;2023-02-28T02:53:32;21.37;;;12.65;;
69799;SDS011;67217;51.008;4.644;2023-02-28T02:56:02;21.80;;;13.08;;
69799;SDS011;67217;51.008;4.644;2023-02-28T02:58:33;22.60;;;13.43;;
69799;SDS011;67217;51.008;4.644;2023-02-28T03:01:05;20.43;;;13.45;;
69799;SDS011;67217;51.008;4.644;2023-02-28T03:03:33;24.37;;;13.60;;
69799;SDS011;67217;51.008;4.644;2023-02-28T03:06:02;20.10;;;13.68;;
69799;SDS011;67217;51.008;4.644;2023-02-28T03:08:36;21.33;;;13.72;;
69799;SDS011;67217;51.008;4.644;2023-02-28T03:11:05;19.37;;;12.78;;
69799;SDS011;67217;51.008;4.644;2023-02-28T03:13:42;19.30;;;13.43;;
69799;SDS011;67217;51.008;4.644;2023-02-28T03:16:35;21.97;;;13.90;;
69799;SDS011;67217;51.008;4.644;2023-02-28T03:22:01;23.07;;;13.70;;
69799;SDS011;67217;51.008;4.644;2023-02-28T03:24:52;20.80;;;13.75;;
69799;SDS011;67217;51.008;4.644;2023-02-28T03:27:30;21.65;;;14.13;;
69799;SDS011;67217;51.008;4.644;2023-02-28T03:30:25;21.73;;;13.70;;
69799;SDS011;67217;51.008;4.644;2023-02-28T03:33:01;26.07;;;13.70;;
69799;SDS011;67217;51.008;4.644;2023-02-28T03:35:26;19.82;;;13.80;;
69799;SDS011;67217;51.008;4.644;2023-02-28T03:38:04;20.15;;;13.88;;
69799;SDS011;67217;51.008;4.644;2023-02-28T03:40:40;22.13;;;13.65;;
69799;SDS011;67217;51.008;4.644;2023-02-28T03:43:12;21.05;;;13.00;;
69799;SDS011;67217;51.008;4.644;2023-02-28T03:45:41;20.75;;;13.53;;
69799;SDS011;67217;51.008;4.644;2023-02-28T03:50:44;22.15;;;13.85;;
69799;SDS011;67217;51.008;4.644;2023-02-28T03:53:22;22.40;;;14.38;;
69799;SDS011;67217;51.008;4.644;2023-02-28T03:55:55;22.40;;;14.25;;
69799;SDS011;67217;51.008;4.644;2023-02-28T03:58:32;24.63;;;14.38;;
69799;SDS011;67217;51.008;4.644;2023-02-28T04:01:07;21.33;;;14.05;;
69799;SDS011;67217;51.008;4.644;2023-02-28T04:03:37;20.15;;;13.83;;
69799;SDS011;67217;51.008;4.644;2023-02-28T04:06:07;19.40;;;14.23;;
69799;SDS011;67217;51.008;4.644;2023-02-28T04:08:36;21.48;;;13.58;;
69799;SDS011;67217;51.008;4.644;2023-02-28T04:11:06;22.58;;;13.80;;
69799;SDS011;67217;51.008;4.644;2023-02-28T04:13:35;17.77;;;13.30;;
69799;SDS011;67217;51.008;4.644;2023-02-28T04:16:06;19.05;;;13.25;;
69799;SDS011;67217;51.008;4.644;2023-02-28T04:18:38;18.35;;;13.20;;
69799;SDS011;67217;51.008;4.644;2023-02-28T04:21:06;18.50;;;12.78;;
69799;SDS011;67217;51.008;4.644;2023-02-28T04:23:34;19.12;;;12.60;;
69799;SDS011;67217;51.008;4.644;2023-02-28T04:26:02;22.75;;;13.62;;
69799;SDS011;67217;51.008;4.644;2023-02-28T04:28:31;21.00;;;13.07;;
69799;SDS011;67217;51.008;4.644;2023-02-28T04:31:01;18.40;;;13.32;;
69799;SDS011;67217;51.008;4.644;2023-02-28T04:33:30;20.05;;;13.08;;
69799;SDS011;67217;51.008;4.644;2023-02-28T04:35:59;20.97;;;13.53;;
69799;SDS011;67217;51.008;4.644;2023-02-28T04:38:33;22.75;;;14.07;;
69799;SDS011;67217;51.008;4.644;2023-02-28T04:41:01;22.98;;;13.50;;
69799;SDS011;67217;51.008;4.644;2023-02-28T04:43:29;22.50;;;13.58;;
69799;SDS011;67217;51.008;4.644;2023-02-28T04:45:59;22.98;;;13.10;;
69799;SDS011;67217;51.008;4.644;2023-02-28T04:48:28;19.20;;;13.35;;
69799;SDS011;67217;51.008;4.644;2023-02-28T04:51:01;21.57;;;13.68;;
69799;SDS011;67217;51.008;4.644;2023-02-28T04:53:31;20.75;;;13.15;;
69799;SDS011;67217;51.008;4.644;2023-02-28T04:55:59;21.90;;;12.98;;
69799;SDS011;67217;51.008;4.644;2023-02-28T04:58:27;22.30;;;13.62;;
69799;SDS011;67217;51.008;4.644;2023-02-28T05:01:01;25.02;;;13.40;;
69799;SDS011;67217;51.008;4.644;2023-02-28T05:03:28;18.87;;;13.15;;
69799;SDS011;67217;51.008;4.644;2023-02-28T05:05:56;21.12;;;13.28;;
69799;SDS011;67217;51.008;4.644;2023-02-28T05:08:24;20.30;;;13.55;;
69799;SDS011;67217;51.008;4.644;2023-02-28T05:10:52;18.95;;;13.13;;
69799;SDS011;67217;51.008;4.644;2023-02-28T05:13:20;20.12;;;14.45;;
69799;SDS011;67217;51.008;4.644;2023-02-28T05:15:48;22.73;;;14.65;;
69799;SDS011;67217;51.008;4.644;2023-02-28T05:18:16;24.72;;;14.98;;
69799;SDS011;67217;51.008;4.644;2023-02-28T05:20:44;25.82;;;17.15;;
69799;SDS011;67217;51.008;4.644;2023-02-28T05:23:12;31.70;;;17.35;;
69799;SDS011;67217;51.008;4.644;2023-02-28T05:25:41;25.82;;;16.80;;
69799;SDS011;67217;51.008;4.644;2023-02-28T05:28:09;22.20;;;16.37;;
69799;SDS011;67217;51.008;4.644;2023-02-28T05:30:37;26.48;;;16.35;;
69799;SDS011;67217;51.008;4.644;2023-02-28T05:33:05;24.95;;;16.32;;
69799;SDS011;67217;51.008;4.644;2023-02-28T05:35:33;25.68;;;15.78;;
69799;SDS011;67217;51.008;4.644;2023-02-28T05:38:02;25.30;;;15.20;;
69799;SDS011;67217;51.008;4.644;2023-02-28T05:40:30;21.80;;;14.95;;
69799;SDS011;67217;51.008;4.644;2023-02-28T05:42:58;26.97;;;15.30;;
69799;SDS011;67217;51.008;4.644;2023-02-28T05:45:26;23.45;;;14.73;;
69799;SDS011;67217;51.008;4.644;2023-02-28T05:47:54;21.60;;;14.65;;
69799;SDS011;67217;51.008;4.644;2023-02-28T05:50:23;20.72;;;14.47;;
69799;SDS011;67217;51.008;4.644;2023-02-28T05:52:51;22.67;;;14.40;;
69799;SDS011;67217;51.008;4.644;2023-02-28T05:55:39;20.20;;;13.62;;
69799;SDS011;67217;51.008;4.644;2023-02-28T05:58:06;23.83;;;13.32;;
69799;SDS011;67217;51.008;4.644;2023-02-28T06:00:34;20.60;;;13.43;;
69799;SDS011;67217;51.008;4.644;2023-02-28T06:03:03;20.15;;;13.45;;
69799;SDS011;67217;51.008;4.644;2023-02-28T06:05:30;23.52;;;13.55;;
69799;SDS011;67217;51.008;4.644;2023-02-28T06:07:58;27.77;;;14.23;;
69799;SDS011;67217;51.008;4.644;2023-02-28T06:10:26;19.80;;;13.65;;
69799;SDS011;67217;51.008;4.644;2023-02-28T06:12:54;23.73;;;14.90;;
69799;SDS011;67217;51.008;4.644;2023-02-28T06:15:22;23.80;;;15.03;;
69799;SDS011;67217;51.008;4.644;2023-02-28T06:17:50;28.35;;;16.10;;
69799;SDS011;67217;51.008;4.644;2023-02-28T06:20:18;33.90;;;17.55;;
69799;SDS011;67217;51.008;4.644;2023-02-28T06:22:45;36.63;;;17.67;;
69799;SDS011;67217;51.008;4.644;2023-02-28T06:25:13;35.60;;;18.15;;
69799;SDS011;67217;51.008;4.644;2023-02-28T06:27:42;36.58;;;18.87;;
69799;SDS011;67217;51.008;4.644;2023-02-28T06:30:10;41.40;;;19.70;;
69799;SDS011;67217;51.008;4.644;2023-02-28T06:32:38;38.65;;;19.70;;
69799;SDS011;67217;51.008;4.644;2023-02-28T06:35:06;33.63;;;18.20;;
69799;SDS011;67217;51.008;4.644;2023-02-28T06:37:34;36.23;;;16.73;;
69799;SDS011;67217;51.008;4.644;2023-02-28T06:40:02;27.70;;;15.95;;
69799;SDS011;67217;51.008;4.644;2023-02-28T06:42:32;29.40;;;14.55;;
69799;SDS011;67217;51.008;4.644;2023-02-28T06:45:00;22.05;;;13.65;;
69799;SDS011;67217;51.008;4.644;2023-02-28T06:47:30;20.52;;;13.20;;
69799;SDS011;67217;51.008;4.644;2023-02-28T06:49:58;21.85;;;12.90;;
69799;SDS011;67217;51.008;4.644;2023-02-28T06:52:27;17.45;;;11.93;;
69799;SDS011;67217;51.008;4.644;2023-02-28T06:54:55;20.25;;;12.93;;
69799;SDS011;67217;51.008;4.644;2023-02-28T06:57:29;23.22;;;12.70;;
69799;SDS011;67217;51.008;4.644;2023-02-28T07:00:08;22.32;;;12.80;;
69799;SDS011;67217;51.008;4.644;2023-02-28T07:02:36;20.05;;;11.97;;
69799;SDS011;67217;51.008;4.644;2023-02-28T07:05:05;20.62;;;11.40;;
69799;SDS011;67217;51.008;4.644;2023-02-28T07:07:33;18.73;;;11.83;;
69799;SDS011;67217;51.008;4.644;2023-02-28T07:10:03;17.82;;;11.63;;
69799;SDS011;67217;51.008;4.644;2023-02-28T07:12:31;18.90;;;11.95;;
69799;SDS011;67217;51.008;4.644;2023-02-28T07:14:58;16.25;;;11.38;;
69799;SDS011;67217;51.008;4.644;2023-02-28T07:17:26;15.38;;;11.18;;
69799;SDS011;67217;51.008;4.644;2023-02-28T07:19:54;16.95;;;11.00;;
69799;SDS011;67217;51.008;4.644;2023-02-28T07:22:22;18.57;;;10.53;;
69799;SDS011;67217;51.008;4.644;2023-02-28T07:24:50;17.80;;;11.53;;
69799;SDS011;67217;51.008;4.644;2023-02-28T07:27:18;16.05;;;11.10;;
69799;SDS011;67217;51.008;4.644;2023-02-28T07:29:48;17.42;;;11.35;;
69799;SDS011;67217;51.008;4.644;2023-02-28T07:32:16;18.42;;;10.58;;
69799;SDS011;67217;51.008;4.644;2023-02-28T07:34:44;19.95;;;11.30;;
69799;SDS011;67217;51.008;4.644;2023-02-28T07:37:12;16.67;;;11.12;;
69799;SDS011;67217;51.008;4.644;2023-02-28T07:39:40;17.00;;;10.32;;
69799;SDS011;67217;51.008;4.644;2023-02-28T07:42:08;16.30;;;10.50;;
69799;SDS011;67217;51.008;4.644;2023-02-28T07:44:38;15.90;;;10.55;;
69799;SDS011;67217;51.008;4.644;2023-02-28T07:47:09;16.40;;;10.82;;
69799;SDS011;67217;51.008;4.644;2023-02-28T07:49:38;15.93;;;11.00;;
69799;SDS011;67217;51.008;4.644;2023-02-28T07:52:06;22.67;;;11.33;;
69799;SDS011;67217;51.008;4.644;2023-02-28T07:54:34;17.67;;;10.20;;
69799;SDS011;67217;51.008;4.644;2023-02-28T07:57:02;16.27;;;10.30;;
69799;SDS011;67217;51.008;4.644;2023-02-28T07:59:30;15.18;;;9.15;;
69799;SDS011;67217;51.008;4.644;2023-02-28T08:01:58;16.93;;;10.88;;
69799;SDS011;67217;51.008;4.644;2023-02-28T08:04:26;13.85;;;8.90;;
69799;SDS011;67217;51.008;4.644;2023-02-28T08:06:54;15.55;;;8.85;;
69799;SDS011;67217;51.008;4.644;2023-02-28T08:09:22;13.13;;;7.70;;
69799;SDS011;67217;51.008;4.644;2023-02-28T08:11:50;15.53;;;8.40;;
69799;SDS011;67217;51.008;4.644;2023-02-28T08:14:18;12.95;;;7.90;;
69799;SDS011;67217;51.008;4.644;2023-02-28T08:16:46;11.60;;;7.15;;
69799;SDS011;67217;51.008;4.644;2023-02-28T08:19:13;13.93;;;7.40;;
69799;SDS011;67217;51.008;4.644;2023-02-28T08:21:41;13.83;;;7.30;;
69799;SDS011;67217;51.008;4.644;2023-02-28T08:24:09;11.03;;;7.55;;
69799;SDS011;67217;51.008;4.644;2023-02-28T08:26:37;10.20;;;7.33;;
69799;SDS011;67217;51.008;4.644;2023-02-28T08:29:05;10.55;;;6.25;;
69799;SDS011;67217;51.008;4.644;2023-02-28T08:31:33;12.58;;;6.90;;
69799;SDS011;67217;51.008;4.644;2023-02-28T08:34:11;11.83;;;6.53;;
69799;SDS011;67217;51.008;4.644;2023-02-28T08:36:40;8.00;;;5.92;;
69799;SDS011;67217;51.008;4.644;2023-02-28T08:39:10;13.10;;;6.12;;
69799;SDS011;67217;51.008;4.644;2023-02-28T08:41:38;9.25;;;5.58;;
69799;SDS011;67217;51.008;4.644;2023-02-28T08:44:06;9.03;;;5.60;;
69799;SDS011;67217;51.008;4.644;2023-02-28T08:46:34;11.93;;;5.45;;
69799;SDS011;67217;51.008;4.644;2023-02-28T08:49:02;7.22;;;4.80;;
69799;SDS011;67217;51.008;4.644;2023-02-28T08:51:30;7.15;;;5.00;;
69799;SDS011;67217;51.008;4.644;2023-02-28T08:53:59;7.03;;;5.00;;
69799;SDS011;67217;51.008;4.644;2023-02-28T08:56:27;8.60;;;4.53;;
69799;SDS011;67217;51.008;4.644;2023-02-28T08:58:56;7.43;;;4.67;;
69799;SDS011;67217;51.008;4.644;2023-02-28T09:01:25;7.40;;;4.80;;
69799;SDS011;67217;51.008;4.644;2023-02-28T09:03:55;8.45;;;4.70;;
69799;SDS011;67217;51.008;4.644;2023-02-28T09:06:24;8.48;;;5.17;;
69799;SDS011;67217;51.008;4.644;2023-02-28T09:08:52;7.83;;;4.60;;
69799;SDS011;67217;51.008;4.644;2023-02-28T09:11:23;8.15;;;4.90;;
69799;SDS011;67217;51.008;4.644;2023-02-28T09:13:51;10.55;;;5.03;;
69799;SDS011;67217;51.008;4.644;2023-02-28T09:16:19;7.05;;;4.33;;
69799;SDS011;67217;51.008;4.644;2023-02-28T09:18:47;7.60;;;4.50;;
69799;SDS011;67217;51.008;4.644;2023-02-28T09:21:16;7.45;;;4.47;;
69799;SDS011;67217;51.008;4.644;2023-02-28T09:23:45;8.33;;;4.67;;
69799;SDS011;67217;51.008;4.644;2023-02-28T09:26:21;6.78;;;4.75;;
69799;SDS011;67217;51.008;4.644;2023-02-28T09:28:45;6.42;;;4.10;;
69799;SDS011;67217;51.008;4.644;2023-02-28T09:31:14;5.35;;;3.80;;
69799;SDS011;67217;51.008;4.644;2023-02-28T09:33:45;7.20;;;4.35;;
69799;SDS011;67217;51.008;4.644;2023-02-28T09:36:14;7.60;;;4.55;;
69799;SDS011;67217;51.008;4.644;2023-02-28T09:38:42;6.50;;;4.00;;
69799;SDS011;67217;51.008;4.644;2023-02-28T09:41:12;6.75;;;3.92;;
69799;SDS011;67217;51.008;4.644;2023-02-28T09:43:43;6.12;;;3.90;;
69799;SDS011;67217;51.008;4.644;2023-02-28T09:46:30;5.85;;;4.08;;
69799;SDS011;67217;51.008;4.644;2023-02-28T09:49:23;8.03;;;3.60;;
69799;SDS011;67217;51.008;4.644;2023-02-28T09:52:02;5.15;;;3.55;;
69799;SDS011;67217;51.008;4.644;2023-02-28T09:54:33;4.85;;;3.25;;
69799;SDS011;67217;51.008;4.644;2023-02-28T10:02:39;5.55;;;2.85;;
69799;SDS011;67217;51.008;4.644;2023-02-28T10:05:11;6.67;;;3.15;;
69799;SDS011;67217;51.008;4.644;2023-02-28T10:08:14;5.10;;;3.00;;
69799;SDS011;67217;51.008;4.644;2023-02-28T10:10:39;5.05;;;3.15;;
69799;SDS011;67217;51.008;4.644;2023-02-28T10:16:13;5.35;;;2.83;;
69799;SDS011;67217;51.008;4.644;2023-02-28T10:18:52;4.20;;;2.52;;
69799;SDS011;67217;51.008;4.644;2023-02-28T10:21:34;4.83;;;2.80;;
69799;SDS011;67217;51.008;4.644;2023-02-28T10:24:02;5.83;;;2.90;;
69799;SDS011;67217;51.008;4.644;2023-02-28T10:26:46;4.95;;;2.95;;
69799;SDS011;67217;51.008;4.644;2023-02-28T10:29:15;4.55;;;2.98;;
69799;SDS011;67217;51.008;4.644;2023-02-28T10:31:43;11.70;;;3.10;;
69799;SDS011;67217;51.008;4.644;2023-02-28T10:34:12;5.45;;;2.85;;
69799;SDS011;67217;51.008;4.644;2023-02-28T10:36:40;6.20;;;3.33;;
69799;SDS011;67217;51.008;4.644;2023-02-28T10:44:26;6.10;;;3.10;;
69799;SDS011;67217;51.008;4.644;2023-02-28T10:46:54;5.10;;;3.40;;
69799;SDS011;67217;51.008;4.644;2023-02-28T10:49:27;4.78;;;3.25;;
69799;SDS011;67217;51.008;4.644;2023-02-28T10:51:56;5.53;;;3.17;;
69799;SDS011;67217;51.008;4.644;2023-02-28T10:54:30;8.53;;;3.15;;
69799;SDS011;67217;51.008;4.644;2023-02-28T10:57:20;4.97;;;2.85;;
69799;SDS011;67217;51.008;4.644;2023-02-28T11:00:07;6.12;;;3.08;;
69799;SDS011;67217;51.008;4.644;2023-02-28T11:02:31;6.45;;;2.95;;
69799;SDS011;67217;51.008;4.644;2023-02-28T11:04:58;6.10;;;3.47;;
69799;SDS011;67217;51.008;4.644;2023-02-28T11:07:26;7.67;;;2.92;;
69799;SDS011;67217;51.008;4.644;2023-02-28T11:09:55;4.40;;;2.80;;
69799;SDS011;67217;51.008;4.644;2023-02-28T11:15:03;5.28;;;2.85;;
69799;SDS011;67217;51.008;4.644;2023-02-28T11:18:00;5.33;;;2.60;;
69799;SDS011;67217;51.008;4.644;2023-02-28T11:20:55;3.92;;;2.15;;
69799;SDS011;67217;51.008;4.644;2023-02-28T11:23:20;4.85;;;2.50;;
69799;SDS011;67217;51.008;4.644;2023-02-28T11:25:51;3.95;;;2.10;;
69799;SDS011;67217;51.008;4.644;2023-02-28T11:28:24;5.17;;;2.50;;
69799;SDS011;67217;51.008;4.644;2023-02-28T11:36:27;6.65;;;2.35;;
69799;SDS011;67217;51.008;4.644;2023-02-28T11:39:03;3.20;;;2.15;;
69799;SDS011;67217;51.008;4.644;2023-02-28T11:46:47;3.62;;;2.10;;
69799;SDS011;67217;51.008;4.644;2023-02-28T11:51:56;5.17;;;2.45;;
69799;SDS011;67217;51.008;4.644;2023-02-28T11:54:39;3.45;;;2.30;;
69799;SDS011;67217;51.008;4.644;2023-02-28T12:00:11;3.12;;;2.22;;
69799;SDS011;67217;51.008;4.644;2023-02-28T12:14:06;8.33;;;2.30;;
69799;SDS011;67217;51.008;4.644;2023-02-28T12:27:49;4.75;;;2.10;;
69799;SDS011;67217;51.008;4.644;2023-02-28T12:30:24;4.00;;;2.10;;
69799;SDS011;67217;51.008;4.644;2023-02-28T12:33:01;4.12;;;2.12;;
69799;SDS011;67217;51.008;4.644;2023-02-28T12:35:25;5.30;;;2.60;;
69799;SDS011;67217;51.008;4.644;2023-02-28T12:38:04;3.45;;;2.10;;
69799;SDS011;67217;51.008;4.644;2023-02-28T12:40:48;4.45;;;2.27;;
69799;SDS011;67217;51.008;4.644;2023-02-28T12:43:31;2.90;;;2.00;;
69799;SDS011;67217;51.008;4.644;2023-02-28T12:46:07;4.10;;;2.12;;
69799;SDS011;67217;51.008;4.644;2023-02-28T12:48:42;3.42;;;2.37;;
69799;SDS011;67217;51.008;4.644;2023-02-28T12:51:12;2.67;;;2.30;;
69799;SDS011;67217;51.008;4.644;2023-02-28T12:56:18;4.70;;;2.50;;
69799;SDS011;67217;51.008;4.644;2023-02-28T12:59:10;4.37;;;2.08;;
69799;SDS011;67217;51.008;4.644;2023-02-28T13:01:48;4.42;;;2.47;;
69799;SDS011;67217;51.008;4.644;2023-02-28T13:04:27;5.10;;;2.67;;
69799;SDS011;67217;51.008;4.644;2023-02-28T13:07:06;3.52;;;2.33;;
69799;SDS011;67217;51.008;4.644;2023-02-28T13:09:56;4.87;;;2.72;;
69799;SDS011;67217;51.008;4.644;2023-02-28T13:14:49;3.02;;;2.30;;
69799;SDS011;67217;51.008;4.644;2023-02-28T13:17:24;3.35;;;2.50;;
69799;SDS011;67217;51.008;4.644;2023-02-28T13:22:35;3.72;;;2.65;;
69799;SDS011;67217;51.008;4.644;2023-02-28T13:24:54;5.72;;;2.65;;
69799;SDS011;67217;51.008;4.644;2023-02-28T13:27:24;6.50;;;2.22;;
69799;SDS011;67217;51.008;4.644;2023-02-28T13:33:21;4.40;;;2.35;;
69799;SDS011;67217;51.008;4.644;2023-02-28T13:35:50;4.60;;;2.25;;
69799;SDS011;67217;51.008;4.644;2023-02-28T13:38:32;3.27;;;2.27;;
69799;SDS011;67217;51.008;4.644;2023-02-28T13:47:24;2.50;;;2.12;;
69799;SDS011;67217;51.008;4.644;2023-02-28T13:52:10;3.12;;;2.10;;
69799;SDS011;67217;51.008;4.644;2023-02-28T14:00:16;3.87;;;2.67;;
69799;SDS011;67217;51.008;4.644;2023-02-28T14:03:11;6.05;;;2.70;;
69799;SDS011;67217;51.008;4.644;2023-02-28T14:05:44;4.15;;;2.80;;
69799;SDS011;67217;51.008;4.644;2023-02-28T14:08:13;4.47;;;3.10;;
69799;SDS011;67217;51.008;4.644;2023-02-28T14:10:50;5.70;;;3.10;;
69799;SDS011;67217;51.008;4.644;2023-02-28T14:16:07;5.08;;;3.27;;
69799;SDS011;67217;51.008;4.644;2023-02-28T14:18:42;5.83;;;2.90;;
69799;SDS011;67217;51.008;4.644;2023-02-28T14:21:28;6.05;;;2.95;;
69799;SDS011;67217;51.008;4.644;2023-02-28T14:26:31;4.08;;;2.83;;
69799;SDS011;67217;51.008;4.644;2023-02-28T14:32:14;4.67;;;2.90;;
69799;SDS011;67217;51.008;4.644;2023-02-28T14:37:27;5.28;;;2.98;;
69799;SDS011;67217;51.008;4.644;2023-02-28T14:39:56;4.53;;;2.90;;
69799;SDS011;67217;51.008;4.644;2023-02-28T14:42:34;6.05;;;3.22;;
69799;SDS011;67217;51.008;4.644;2023-02-28T14:45:00;4.42;;;2.92;;
69799;SDS011;67217;51.008;4.644;2023-02-28T14:47:28;6.10;;;3.00;;
69799;SDS011;67217;51.008;4.644;2023-02-28T14:49:59;4.25;;;3.00;;
69799;SDS011;67217;51.008;4.644;2023-02-28T14:52:30;6.70;;;3.10;;
69799;SDS011;67217;51.008;4.644;2023-02-28T14:55:00;5.70;;;3.00;;
69799;SDS011;67217;51.008;4.644;2023-02-28T14:57:31;3.92;;;2.98;;
69799;SDS011;67217;51.008;4.644;2023-02-28T15:00:12;6.62;;;3.20;;
69799;SDS011;67217;51.008;4.644;2023-02-28T15:02:43;4.22;;;2.90;;
69799;SDS011;67217;51.008;4.644;2023-02-28T15:07:49;3.98;;;2.87;;
69799;SDS011;67217;51.008;4.644;2023-02-28T15:10:25;5.60;;;3.40;;
69799;SDS011;67217;51.008;4.644;2023-02-28T15:15:33;6.47;;;3.22;;
69799;SDS011;67217;51.008;4.644;2023-02-28T15:18:22;4.58;;;3.65;;
69799;SDS011;67217;51.008;4.644;2023-02-28T15:20:55;5.28;;;3.67;;
69799;SDS011;67217;51.008;4.644;2023-02-28T15:25:52;4.30;;;3.27;;
69799;SDS011;67217;51.008;4.644;2023-02-28T15:28:21;9.63;;;3.40;;
69799;SDS011;67217;51.008;4.644;2023-02-28T15:30:51;6.03;;;3.58;;
69799;SDS011;67217;51.008;4.644;2023-02-28T15:33:28;4.67;;;3.15;;
69799;SDS011;67217;51.008;4.644;2023-02-28T15:36:15;6.75;;;3.60;;
69799;SDS011;67217;51.008;4.644;2023-02-28T15:38:40;7.25;;;3.35;;
69799;SDS011;67217;51.008;4.644;2023-02-28T15:41:21;5.55;;;3.30;;
69799;SDS011;67217;51.008;4.644;2023-02-28T15:49:19;4.40;;;3.27;;
69799;SDS011;67217;51.008;4.644;2023-02-28T15:51:48;5.22;;;3.37;;
69799;SDS011;67217;51.008;4.644;2023-02-28T15:54:22;7.55;;;3.60;;
69799;SDS011;67217;51.008;4.644;2023-02-28T15:56:53;7.60;;;3.60;;
69799;SDS011;67217;51.008;4.644;2023-02-28T16:10:09;5.80;;;4.17;;
69799;SDS011;67217;51.008;4.644;2023-02-28T16:12:40;7.62;;;4.20;;
69799;SDS011;67217;51.008;4.644;2023-02-28T16:15:09;7.20;;;4.05;;
69799;SDS011;67217;51.008;4.644;2023-02-28T16:17:52;8.40;;;4.20;;
69799;SDS011;67217;51.008;4.644;2023-02-28T16:20:21;6.72;;;3.80;;
69799;SDS011;67217;51.008;4.644;2023-02-28T16:22:54;7.47;;;3.58;;
69799;SDS011;67217;51.008;4.644;2023-02-28T16:25:28;7.33;;;3.80;;
69799;SDS011;67217;51.008;4.644;2023-02-28T16:27:53;6.10;;;3.83;;
69799;SDS011;67217;51.008;4.644;2023-02-28T16:30:24;7.15;;;3.80;;
69799;SDS011;67217;51.008;4.644;2023-02-28T16:37:51;8.18;;;4.00;;
69799;SDS011;67217;51.008;4.644;2023-02-28T16:40:20;5.70;;;3.87;;
69799;SDS011;67217;51.008;4.644;2023-02-28T16:42:52;7.42;;;3.95;;
69799;SDS011;67217;51.008;4.644;2023-02-28T16:45:23;6.35;;;3.77;;
69799;SDS011;67217;51.008;4.644;2023-02-28T16:47:52;5.87;;;3.77;;
69799;SDS011;67217;51.008;4.644;2023-02-28T16:50:21;6.55;;;4.00;;
69799;SDS011;67217;51.008;4.644;2023-02-28T16:52:51;7.78;;;4.28;;
69799;SDS011;67217;51.008;4.644;2023-02-28T16:55:20;5.75;;;4.08;;
69799;SDS011;67217;51.008;4.644;2023-02-28T16:57:54;6.15;;;3.90;;
69799;SDS011;67217;51.008;4.644;2023-02-28T17:00:23;9.25;;;3.95;;
69799;SDS011;67217;51.008;4.644;2023-02-28T17:02:52;10.50;;;4.17;;
69799;SDS011;67217;51.008;4.644;2023-02-28T17:05:20;10.45;;;4.30;;
69799;SDS011;67217;51.008;4.644;2023-02-28T17:07:49;8.93;;;4.25;;
69799;SDS011;67217;51.008;4.644;2023-02-28T17:12:47;6.40;;;4.42;;
69799;SDS011;67217;51.008;4.644;2023-02-28T17:15:16;8.20;;;5.55;;
69799;SDS011;67217;51.008;4.644;2023-02-28T17:17:45;8.67;;;5.73;;